createdAt,value
2018-10-19T00:02:20.564Z,102027.09
2018-10-19T00:04:49.150Z,102025.34
2018-10-19T00:07:17.834Z,102021.89
2018-10-19T00:09:46.526Z,102021.39
2018-10-19T00:12:15.132Z,102019.62
2018-10-19T00:14:43.816Z,102019.16
2018-10-19T00:17:12.503Z,102020.83
2018-10-19T00:19:41.103Z,102019.08
2018-10-19T00:22:09.704Z,102018.61
2018-10-19T00:24:38.551Z,102017.70
2018-10-19T00:27:07.270Z,102023.16
2018-10-19T00:29:35.864Z,102018.40
2018-10-19T00:32:04.533Z,102016.62
2018-10-19T00:34:33.064Z,102020.02
2018-10-19T00:37:01.630Z,102017.38
2018-10-19T00:39:30.312Z,102024.20
2018-10-19T00:41:58.894Z,102026.75
2018-10-19T00:44:27.564Z,102024.98
2018-10-19T00:46:56.477Z,102024.13
2018-10-19T00:49:25.002Z,102022.78
2018-10-19T00:51:53.745Z,102024.91
2018-10-19T00:54:22.262Z,102020.09
2018-10-19T00:56:50.891Z,102017.51
2018-10-19T00:59:19.430Z,102016.64
2018-10-19T01:01:48.137Z,102014.48
2018-10-19T01:04:16.728Z,102023.05
2018-10-19T01:06:45.332Z,102016.61
2018-10-19T01:09:13.875Z,102015.32
2018-10-19T01:11:45.213Z,102013.61
2018-10-19T01:14:13.795Z,102010.97
2018-10-19T01:16:42.392Z,102011.40
2018-10-19T01:19:10.950Z,102015.23
2018-10-19T01:21:39.572Z,102016.91
2018-10-19T01:24:08.106Z,102013.89
2018-10-19T01:26:36.779Z,102022.87
2018-10-19T01:29:05.653Z,102019.84
2018-10-19T01:31:34.471Z,102020.69
2018-10-19T01:34:03.588Z,102028.77
2018-10-19T01:36:37.476Z,102030.09
2018-10-19T01:39:07.513Z,102030.41
2018-10-19T01:41:35.914Z,102025.27
2018-10-19T01:44:04.721Z,102026.13
2018-10-19T01:46:33.319Z,102028.70
2018-10-19T01:49:01.918Z,102028.26
2018-10-19T01:51:31.160Z,102033.41
2018-10-19T01:53:59.715Z,102032.09
2018-10-19T01:56:28.235Z,102040.66
2018-10-19T01:58:56.956Z,102035.92
2018-10-19T02:01:25.530Z,102040.66
2018-10-19T02:03:54.055Z,102037.59
2018-10-19T02:06:22.612Z,102040.55
2018-10-19T02:08:51.162Z,102040.10
2018-10-19T02:11:19.852Z,102035.33
2018-10-19T02:13:48.633Z,102026.66
2018-10-19T02:16:17.424Z,102034.81
2018-10-19T02:18:46.028Z,102036.09
2018-10-19T02:21:14.699Z,102039.47
2018-10-19T02:23:43.199Z,102041.59
2018-10-19T02:26:11.853Z,102045.00
2018-10-19T02:28:40.414Z,102046.29
2018-10-19T02:31:09.049Z,102041.09
2018-10-19T02:33:45.589Z,102038.07
2018-10-19T02:36:14.783Z,102038.07
2018-10-19T02:38:44.535Z,102040.64
2018-10-19T02:41:14.649Z,102049.20
2018-10-19T02:43:43.258Z,102052.12
2018-10-19T02:46:11.849Z,102044.66
2018-10-19T02:48:40.556Z,102050.94
2018-10-19T02:51:15.778Z,102048.25
2018-10-19T02:53:44.277Z,102050.23
2018-10-19T02:56:12.869Z,102046.75
2018-10-19T02:58:41.521Z,102047.12
2018-10-19T03:01:10.057Z,102047.53
2018-10-19T03:03:38.619Z,102055.67
2018-10-19T03:06:07.580Z,102054.75
2018-10-19T03:08:36.370Z,102057.36
2018-10-19T03:11:05.293Z,102051.81
2018-10-19T03:13:34.064Z,102052.67
2018-10-19T03:16:05.574Z,102050.93
2018-10-19T03:18:34.166Z,102049.14
2018-10-19T03:21:03.554Z,102053.84
2018-10-19T03:23:32.114Z,102055.08
2018-10-19T03:26:00.836Z,102046.86
2018-10-19T03:28:29.487Z,102053.24
2018-10-19T03:30:58.041Z,102048.92
2018-10-19T03:33:26.650Z,102047.54
2018-10-19T03:35:55.209Z,102047.09
2018-10-19T03:38:23.815Z,102041.02
2018-10-19T03:40:52.377Z,102053.38
2018-10-19T03:43:20.953Z,102052.97
2018-10-19T03:45:49.635Z,102046.02
2018-10-19T03:48:18.173Z,102046.48
2018-10-19T03:50:46.821Z,102047.73
2018-10-19T03:53:15.412Z,102046.75
2018-10-19T03:55:43.972Z,102044.55
2018-10-19T03:58:12.539Z,102044.08
2018-10-19T04:00:41.147Z,102046.20
2018-10-19T04:03:09.791Z,102044.81
2018-10-19T04:05:38.262Z,102043.89
2018-10-19T04:08:06.929Z,102034.38
2018-10-19T04:10:35.505Z,102038.66
2018-10-19T04:13:04.192Z,102038.66
2018-10-19T04:15:32.798Z,102037.78
2018-10-19T04:18:01.748Z,102037.78
2018-10-19T04:20:30.338Z,102037.31
2018-10-19T04:23:03.358Z,102042.73
2018-10-19T04:25:31.818Z,102042.66
2018-10-19T04:28:00.569Z,102047.30
2018-10-19T04:30:29.092Z,102040.88
2018-10-19T04:32:57.742Z,102049.30
2018-10-19T04:35:26.364Z,102047.95
2018-10-19T04:37:54.886Z,102048.38
2018-10-19T04:40:24.186Z,102054.42
2018-10-19T04:42:52.786Z,102050.63
2018-10-19T04:45:21.399Z,102051.97
2018-10-19T04:47:50.174Z,102051.30
2018-10-19T04:50:18.623Z,102053.64
2018-10-19T04:52:47.181Z,102048.05
2018-10-19T04:55:19.336Z,102050.31
2018-10-19T04:57:47.991Z,102048.61
2018-10-19T05:00:23.416Z,102043.58
2018-10-19T05:02:52.764Z,102055.96
2018-10-19T05:05:21.647Z,102055.45
2018-10-19T05:07:50.335Z,102054.21
2018-10-19T05:10:19.306Z,102050.36
2018-10-19T05:12:47.957Z,102049.89
2018-10-19T05:15:16.651Z,102050.30
2018-10-19T05:17:45.315Z,102054.20
2018-10-19T05:20:14.178Z,102050.81
2018-10-19T05:22:42.737Z,102058.81
2018-10-19T05:25:12.850Z,102060.45
2018-10-19T05:27:41.661Z,102059.98
2018-10-19T05:30:12.275Z,102058.47
2018-10-19T05:32:41.827Z,102060.41
2018-10-19T05:35:10.922Z,102058.28
2018-10-19T05:37:40.486Z,102051.36
2018-10-19T05:40:10.772Z,102060.75
2018-10-19T05:42:39.906Z,102058.19
2018-10-19T05:45:10.275Z,102062.95
2018-10-19T05:47:38.960Z,102058.28
2018-10-19T05:50:08.941Z,102062.67
2018-10-19T05:52:38.122Z,102065.29
2018-10-19T05:55:07.072Z,102064.72
2018-10-19T05:57:35.972Z,102070.94
2018-10-19T06:00:05.103Z,102068.39
2018-10-19T06:02:33.930Z,102070.55
2018-10-19T06:05:03.269Z,102062.78
2018-10-19T06:07:31.961Z,102066.22
2018-10-19T06:10:00.603Z,102070.87
2018-10-19T06:12:29.273Z,102073.52
2018-10-19T06:14:57.920Z,102076.59
2018-10-19T06:17:26.635Z,102081.38
2018-10-19T06:19:55.372Z,102073.17
2018-10-19T06:22:24.061Z,102088.22
2018-10-19T06:24:52.670Z,102083.95
2018-10-19T06:27:21.271Z,102089.56
2018-10-19T06:29:49.996Z,102084.03
2018-10-19T06:32:18.715Z,102085.25
2018-10-19T06:34:47.212Z,102093.76
2018-10-19T06:37:16.202Z,102088.97
2018-10-19T06:39:44.900Z,102092.02
2018-10-19T06:42:13.505Z,102100.52
2018-10-19T06:44:42.185Z,102099.46
2018-10-19T06:47:11.028Z,102104.05
2018-10-19T06:49:39.558Z,102107.90
2018-10-19T06:52:08.204Z,102099.33
2018-10-19T06:54:36.863Z,102101.44
2018-10-19T06:57:05.784Z,102105.47
2018-10-19T06:59:34.772Z,102105.86
2018-10-19T07:02:04.375Z,102105.08
2018-10-19T07:04:32.957Z,102107.87
2018-10-19T07:07:02.693Z,102107.07
2018-10-19T07:09:31.368Z,102102.75
2018-10-19T07:12:00.137Z,102112.73
2018-10-19T07:14:28.855Z,102117.58
2018-10-19T07:16:57.535Z,102127.03
2018-10-19T07:19:26.218Z,102123.66
2018-10-19T07:21:54.842Z,102119.03
2018-10-19T07:24:23.535Z,102125.17
2018-10-19T07:26:52.499Z,102126.98
2018-10-19T07:29:21.279Z,102124.63
2018-10-19T07:31:50.388Z,102129.89
2018-10-19T07:34:19.508Z,102136.48
2018-10-19T07:36:48.377Z,102134.48
2018-10-19T07:39:17.079Z,102140.21
2018-10-19T07:41:45.710Z,102141.75
2018-10-19T07:44:14.481Z,102137.08
2018-10-19T07:46:43.365Z,102140.54
2018-10-19T07:49:12.333Z,102142.34
2018-10-19T07:51:42.782Z,102146.66
2018-10-19T07:54:11.550Z,102146.76
2018-10-19T07:56:43.415Z,102149.80
2018-10-19T07:59:12.704Z,102143.47
2018-10-19T08:01:42.016Z,102150.84
2018-10-19T08:04:10.827Z,102148.78
2018-10-19T08:06:39.772Z,102154.84
2018-10-19T08:09:10.252Z,102149.34
2018-10-19T08:11:39.564Z,102152.89
2018-10-19T08:14:08.238Z,102150.77
2018-10-19T08:16:36.959Z,102150.32
2018-10-19T08:19:05.594Z,102150.83
2018-10-19T08:21:34.188Z,102156.48
2018-10-19T08:24:04.065Z,102148.41
2018-10-19T08:26:33.423Z,102153.70
2018-10-19T08:29:02.822Z,102156.42
2018-10-19T08:31:31.744Z,102159.14
2018-10-19T08:34:00.415Z,102160.94
2018-10-19T08:36:29.057Z,102158.86
2018-10-19T08:38:57.893Z,102156.80
2018-10-19T08:41:26.607Z,102163.78
2018-10-19T08:43:55.262Z,102164.79
2018-10-19T08:46:29.370Z,102160.64
2018-10-19T08:48:58.279Z,102160.30
2018-10-19T08:51:26.847Z,102165.50
2018-10-19T08:53:55.658Z,102167.74
2018-10-19T08:56:24.325Z,102163.55
2018-10-19T08:58:53.247Z,102159.77
2018-10-19T09:01:22.025Z,102159.44
2018-10-19T09:03:51.057Z,102164.20
2018-10-19T09:06:19.740Z,102163.87
2018-10-19T09:08:48.417Z,102160.12
2018-10-19T09:11:18.125Z,102160.27
2018-10-19T09:13:46.790Z,102153.94
2018-10-19T09:16:15.444Z,102157.50
2018-10-19T09:18:44.169Z,102156.69
2018-10-19T09:21:13.069Z,102153.31
2018-10-19T09:23:41.743Z,102152.58
2018-10-19T09:26:10.883Z,102150.12
2018-10-19T09:28:39.728Z,102146.80
2018-10-19T09:31:08.426Z,102147.77
2018-10-19T09:33:38.449Z,102146.59
2018-10-19T09:36:07.195Z,102146.68
2018-10-19T09:38:35.877Z,102146.77
2018-10-19T09:41:05.313Z,102145.50
2018-10-19T09:43:34.801Z,102135.70
2018-10-19T09:46:04.407Z,102138.30
2018-10-19T09:48:33.062Z,102134.53
2018-10-19T09:51:02.960Z,102129.29
2018-10-19T09:53:31.814Z,102128.86
2018-10-19T09:56:00.698Z,102127.50
2018-10-19T09:58:30.340Z,102119.51
2018-10-19T10:00:59.093Z,102116.62
2018-10-19T10:03:28.369Z,102118.39
2018-10-19T10:05:57.016Z,102114.16
2018-10-19T10:08:25.862Z,102116.31
2018-10-19T10:10:54.862Z,102114.22
2018-10-19T10:13:25.115Z,102109.14
2018-10-19T10:15:54.904Z,102113.89
2018-10-19T10:18:23.635Z,102110.47
2018-10-19T10:20:52.878Z,102107.48
2018-10-19T10:23:22.090Z,102105.78
2018-10-19T10:25:51.842Z,102108.83
2018-10-19T10:28:20.507Z,102111.87
2018-10-19T10:30:49.254Z,102111.89
2018-10-19T10:33:18.067Z,102107.58
2018-10-19T10:35:46.794Z,102109.36
2018-10-19T10:38:15.436Z,102101.20
2018-10-19T10:40:44.157Z,102096.92
2018-10-19T10:43:13.072Z,102094.77
2018-10-19T10:45:42.763Z,102095.22
2018-10-19T10:48:12.232Z,102087.94
2018-10-19T10:50:40.910Z,102084.93
2018-10-19T10:53:09.664Z,102091.44
2018-10-19T10:55:38.587Z,102086.70
2018-10-19T10:58:07.639Z,102080.67
2018-10-19T11:00:36.355Z,102075.53
2018-10-19T11:03:05.095Z,102071.63
2018-10-19T11:05:33.962Z,102073.36
2018-10-19T11:08:03.555Z,102071.23
2018-10-19T11:10:32.353Z,102064.77
2018-10-19T11:13:01.358Z,102062.18
2018-10-19T11:15:30.281Z,102053.98
2018-10-19T11:17:59.230Z,102052.66
2018-10-19T11:20:28.027Z,102040.16
2018-10-19T11:22:56.678Z,102044.48
2018-10-19T11:25:26.395Z,102044.48
2018-10-19T11:27:55.161Z,102048.38
2018-10-19T11:30:23.820Z,102049.24
2018-10-19T11:32:52.766Z,102046.63
2018-10-19T11:35:21.494Z,102041.43
2018-10-19T11:37:50.251Z,102041.82
2018-10-19T11:40:26.973Z,102039.24
2018-10-19T11:42:56.991Z,102035.78
2018-10-19T11:45:27.729Z,102030.99
2018-10-19T11:47:56.661Z,102032.70
2018-10-19T11:50:25.302Z,102028.00
2018-10-19T11:52:53.879Z,102035.33
2018-10-19T11:55:22.624Z,102031.39
2018-10-19T11:57:52.443Z,102031.81
2018-10-19T12:00:21.129Z,102025.73
2018-10-19T12:02:49.956Z,102019.20
2018-10-19T12:05:18.555Z,102019.59
2018-10-19T12:07:47.336Z,102020.47
2018-10-19T12:10:16.398Z,102017.39
2018-10-19T12:12:45.842Z,102016.97
2018-10-19T12:15:16.151Z,102020.42
2018-10-19T12:17:45.482Z,102015.22
2018-10-19T12:20:16.017Z,102011.72
2018-10-19T12:22:44.712Z,102005.63
2018-10-19T12:25:14.298Z,102003.81
2018-10-19T12:27:42.999Z,102003.27
2018-10-19T12:30:13.821Z,102007.23
2018-10-19T12:32:43.469Z,102005.90
2018-10-19T12:35:13.548Z,102002.81
2018-10-19T12:37:42.202Z,102002.76
2018-10-19T12:40:12.004Z,102000.53
2018-10-19T12:42:40.764Z,101997.07
2018-10-19T12:45:20.758Z,101993.98
2018-10-19T12:47:49.385Z,101995.61
2018-10-19T12:50:18.939Z,101990.81
2018-10-19T12:52:48.083Z,101993.38
2018-10-19T12:55:16.805Z,101985.98
2018-10-19T12:57:45.494Z,101984.05
2018-10-19T13:00:17.497Z,101988.04
2018-10-19T13:02:47.782Z,101991.56
2018-10-19T13:05:16.616Z,101991.65
2018-10-19T13:07:45.209Z,101992.64
2018-10-19T13:10:13.893Z,101988.39
2018-10-19T13:12:42.492Z,101985.45
2018-10-19T13:15:11.156Z,101989.84
2018-10-19T13:17:40.001Z,101989.02
2018-10-19T13:20:08.701Z,101986.91
2018-10-19T13:22:37.326Z,101982.17
2018-10-19T13:25:06.026Z,101982.20
2018-10-19T13:27:34.741Z,101980.52
2018-10-19T13:30:03.711Z,101978.78
2018-10-19T13:32:32.644Z,101977.08
2018-10-19T13:35:01.615Z,101973.65
2018-10-19T13:37:30.438Z,101968.47
2018-10-19T13:39:59.200Z,101979.25
2018-10-19T13:42:27.845Z,101975.83
2018-10-19T13:44:56.381Z,101972.37
2018-10-19T13:47:24.985Z,101966.78
2018-10-19T13:49:53.872Z,101968.52
2018-10-19T13:52:22.613Z,101974.98
2018-10-19T13:54:51.393Z,101971.52
2018-10-19T13:57:20.084Z,101974.12
2018-10-19T13:59:48.828Z,101975.86
2018-10-19T14:02:18.140Z,101973.25
2018-10-19T14:04:46.748Z,101968.53
2018-10-19T14:07:15.570Z,101961.60
2018-10-19T14:09:44.196Z,101962.89
2018-10-19T14:12:12.816Z,101957.75
2018-10-19T14:14:41.347Z,101961.18
2018-10-19T14:17:10.122Z,101957.75
2018-10-19T14:19:38.752Z,101954.29
2018-10-19T14:22:07.356Z,101951.70
2018-10-19T14:24:36.007Z,101960.34
2018-10-19T14:27:04.982Z,101944.36
2018-10-19T14:29:33.653Z,101944.39
2018-10-19T14:32:02.449Z,101941.77
2018-10-19T14:34:31.080Z,101935.75
2018-10-19T14:36:59.756Z,101942.65
2018-10-19T14:39:28.536Z,101935.33
2018-10-19T14:41:57.252Z,101935.77
2018-10-19T14:44:25.970Z,101936.17
2018-10-19T14:46:54.574Z,101938.35
2018-10-19T14:49:23.382Z,101934.89
2018-10-19T14:51:52.084Z,101929.70
2018-10-19T14:54:20.830Z,101929.30
2018-10-19T14:56:49.525Z,101933.60
2018-10-19T14:59:18.450Z,101935.33
2018-10-19T15:01:47.126Z,101931.03
2018-10-19T15:04:15.905Z,101934.91
2018-10-19T15:06:44.718Z,101934.46
2018-10-19T15:09:13.509Z,101941.36
2018-10-19T15:11:42.705Z,101946.53
2018-10-19T15:14:11.692Z,101948.25
2018-10-19T15:16:40.719Z,101940.06
2018-10-19T15:19:09.485Z,101940.08
2018-10-19T15:21:38.121Z,101946.12
2018-10-19T15:24:06.906Z,101944.39
2018-10-19T15:26:35.504Z,101942.23
2018-10-19T15:29:04.404Z,101948.25
2018-10-19T15:31:33.918Z,101942.22
2018-10-19T15:34:04.235Z,101947.38
2018-10-19T15:36:33.545Z,101943.94
2018-10-19T15:39:02.798Z,101950.81
2018-10-19T15:41:31.515Z,101952.53
2018-10-19T15:44:00.250Z,101949.09
2018-10-19T15:46:28.956Z,101951.66
2018-10-19T15:48:57.648Z,101955.55
2018-10-19T15:51:26.337Z,101961.14
2018-10-19T15:53:55.062Z,101955.52
2018-10-19T15:56:23.712Z,101955.91
2018-10-19T15:58:52.396Z,101958.94
2018-10-19T16:01:21.008Z,101964.06
2018-10-19T16:03:49.893Z,101961.91
2018-10-19T16:06:18.660Z,101962.78
2018-10-19T16:08:47.443Z,101958.44
2018-10-19T16:11:16.173Z,101959.70
2018-10-19T16:13:45.060Z,101954.55
2018-10-19T16:16:13.843Z,101966.56
2018-10-19T16:18:42.451Z,101966.96
2018-10-19T16:21:11.455Z,101962.67
2018-10-19T16:23:40.160Z,101969.53
2018-10-19T16:26:08.814Z,101971.67
2018-10-19T16:28:37.452Z,101972.53
2018-10-19T16:31:06.126Z,101972.49
2018-10-19T16:33:34.823Z,101973.33
2018-10-19T16:36:05.991Z,101978.48
2018-10-19T16:38:34.697Z,101983.22
2018-10-19T16:41:03.930Z,101979.33
2018-10-19T16:43:32.589Z,101981.88
2018-10-19T16:46:02.654Z,101990.91
2018-10-19T16:48:31.326Z,101987.41
2018-10-19T16:50:59.926Z,101986.95
2018-10-19T16:53:29.524Z,101992.97
2018-10-19T16:55:58.175Z,101991.66
2018-10-19T16:58:27.310Z,101994.67
2018-10-19T17:00:55.992Z,101992.09
2018-10-19T17:03:24.716Z,101996.82
2018-10-19T17:05:53.477Z,101999.83
2018-10-19T17:08:22.726Z,101999.39
2018-10-19T17:10:51.440Z,102000.67
2018-10-19T17:13:20.388Z,102001.08
2018-10-19T17:15:49.989Z,102000.67
2018-10-19T17:18:19.151Z,102014.41
2018-10-19T17:20:48.516Z,102013.93
2018-10-19T17:23:17.303Z,102010.46
2018-10-19T17:25:46.812Z,102016.91
2018-10-19T17:28:15.594Z,102019.02
2018-10-19T17:30:44.152Z,102009.96
2018-10-19T17:33:13.013Z,102011.20
2018-10-19T17:35:42.579Z,102015.92
2018-10-19T17:38:11.370Z,102018.81
2018-10-19T17:40:40.070Z,102015.33
2018-10-19T17:43:09.245Z,102017.88
2018-10-19T17:45:38.811Z,102019.98
2018-10-19T17:48:14.309Z,102021.67
2018-10-19T17:50:42.920Z,102029.78
2018-10-19T17:53:11.583Z,102030.14
2018-10-19T17:55:40.314Z,102031.41
2018-10-19T17:58:09.086Z,102033.94
2018-10-19T18:00:37.928Z,102045.02
2018-10-19T18:03:06.701Z,102040.74
2018-10-19T18:05:35.977Z,102045.87
2018-10-19T18:08:04.755Z,102053.13
2018-10-19T18:10:33.678Z,102056.54
2018-10-19T18:13:03.078Z,102050.48
2018-10-19T18:15:32.259Z,102053.03
2018-10-19T18:18:01.039Z,102053.83
2018-10-19T18:20:30.309Z,102058.09
2018-10-19T18:22:59.353Z,102062.31
2018-10-19T18:25:28.100Z,102059.66
2018-10-19T18:27:57.026Z,102067.46
2018-10-19T18:30:26.203Z,102065.75
2018-10-19T18:32:54.965Z,102069.66
2018-10-19T18:35:23.701Z,102072.30
2018-10-19T18:37:53.423Z,102069.75
2018-10-19T18:40:22.108Z,102071.45
2018-10-19T18:42:50.821Z,102075.33
2018-10-19T18:45:19.724Z,102074.91
2018-10-19T18:47:48.661Z,102073.65
2018-10-19T18:50:18.466Z,102074.55
2018-10-19T18:52:47.195Z,102078.00
2018-10-19T18:55:15.987Z,102081.86
2018-10-19T18:57:44.701Z,102084.45
2018-10-19T19:00:13.828Z,102083.12
2018-10-19T19:02:42.583Z,102082.67
2018-10-19T19:05:11.547Z,102087.37
2018-10-19T19:07:40.422Z,102093.41
2018-10-19T19:10:13.516Z,102090.79
2018-10-19T19:12:43.079Z,102092.95
2018-10-19T19:15:12.356Z,102100.27
2018-10-19T19:17:41.337Z,102095.49
2018-10-19T19:20:15.768Z,102094.59
2018-10-19T19:22:44.861Z,102097.13
2018-10-19T19:25:20.993Z,102095.39
2018-10-19T19:27:49.788Z,102101.00
2018-10-19T19:30:18.527Z,102103.12
2018-10-19T19:32:52.441Z,102099.22
2018-10-19T19:35:21.152Z,102109.08
2018-10-19T19:37:49.865Z,102108.63
2018-10-19T19:40:18.962Z,102108.63
2018-10-19T19:42:56.000Z,102105.63
2018-10-19T19:45:24.780Z,102109.08
2018-10-19T19:47:58.776Z,102102.19
2018-10-19T19:50:27.415Z,102107.75
2018-10-19T19:52:56.167Z,102108.20
2018-10-19T19:55:25.601Z,102105.21
2018-10-19T19:57:54.372Z,102110.33
2018-10-19T20:00:23.731Z,102117.19
2018-10-19T20:02:52.811Z,102118.02
2018-10-19T20:05:21.698Z,102115.03
2018-10-19T20:07:50.452Z,102113.36
2018-10-19T20:10:19.092Z,102114.23
2018-10-19T20:12:47.837Z,102113.78
2018-10-19T20:15:16.525Z,102119.28
2018-10-19T20:17:45.475Z,102115.38
2018-10-19T20:20:14.100Z,102108.06
2018-10-19T20:22:43.291Z,102101.62
2018-10-19T20:25:13.417Z,102093.81
2018-10-19T20:27:42.253Z,102092.98
2018-10-19T20:30:12.798Z,102096.78
2018-10-19T20:32:41.613Z,102092.83
2018-10-19T20:35:11.610Z,102096.58
2018-10-19T20:37:40.313Z,102095.56
2018-10-19T20:40:09.115Z,102091.58
2018-10-19T20:42:37.793Z,102086.38
2018-10-19T20:45:07.354Z,102096.56
2018-10-19T20:47:35.972Z,102099.02
2018-10-19T20:50:04.635Z,102100.22
2018-10-19T20:52:33.250Z,102100.95
2018-10-19T20:55:01.920Z,102108.59
2018-10-19T20:57:30.635Z,102113.70
2018-10-19T20:59:59.532Z,102118.70
2018-10-19T21:02:28.311Z,102116.50
2018-10-19T21:04:57.072Z,102115.16
2018-10-19T21:07:25.951Z,102112.63
2018-10-19T21:09:54.791Z,102112.55
2018-10-19T21:12:23.628Z,102110.74
2018-10-19T21:14:52.321Z,102108.95
2018-10-19T21:17:21.215Z,102110.56
2018-10-19T21:19:49.895Z,102111.34
2018-10-19T21:22:18.459Z,102111.39
2018-10-19T21:24:48.023Z,102109.64
2018-10-19T21:27:16.670Z,102102.60
2018-10-19T21:29:46.379Z,102106.36
2018-10-19T21:32:15.383Z,102106.72
2018-10-19T21:34:44.095Z,102109.28
2018-10-19T21:37:12.780Z,102113.14
2018-10-19T21:39:41.418Z,102119.52
2018-10-19T21:42:10.078Z,102121.63
2018-10-19T21:44:38.754Z,102122.86
2018-10-19T21:47:07.594Z,102130.00
2018-10-19T21:49:36.294Z,102137.66
2018-10-19T21:52:05.105Z,102138.38
2018-10-19T21:54:33.823Z,102140.95
2018-10-19T21:57:03.462Z,102134.57
2018-10-19T21:59:32.214Z,102140.64
2018-10-19T22:02:03.057Z,102141.10
2018-10-19T22:04:31.843Z,102128.97
2018-10-19T22:07:00.525Z,102129.48
2018-10-19T22:09:29.650Z,102126.50
2018-10-19T22:11:58.682Z,102132.12
2018-10-19T22:14:27.841Z,102131.59
2018-10-19T22:16:56.851Z,102131.17
2018-10-19T22:19:25.602Z,102131.90
2018-10-19T22:21:54.264Z,102135.64
2018-10-19T22:24:23.189Z,102136.36
2018-10-19T22:26:52.007Z,102141.38
2018-10-19T22:29:20.789Z,102143.02
2018-10-19T22:31:49.581Z,102141.31
2018-10-19T22:34:18.509Z,102143.06
2018-10-19T22:36:47.253Z,102146.56
2018-10-19T22:39:16.567Z,102140.14
2018-10-19T22:41:45.262Z,102139.27
2018-10-19T22:44:14.013Z,102141.02
2018-10-19T22:46:43.690Z,102137.94
2018-10-19T22:49:12.587Z,102141.72
2018-10-19T22:51:41.442Z,102138.27
2018-10-19T22:54:10.306Z,102150.37
2018-10-19T22:56:39.055Z,102147.80
2018-10-19T22:59:07.771Z,102154.20
2018-10-19T23:01:36.482Z,102156.31
2018-10-19T23:04:05.669Z,102161.06
2018-10-19T23:06:34.453Z,102160.11
2018-10-19T23:09:03.471Z,102161.06
2018-10-19T23:11:33.277Z,102161.87
2018-10-19T23:14:02.059Z,102160.13
2018-10-19T23:16:32.024Z,102168.87
2018-10-19T23:19:01.091Z,102168.41
2018-10-19T23:21:29.784Z,102171.45
2018-10-19T23:23:58.761Z,102165.42
2018-10-19T23:26:27.371Z,102168.42
2018-10-19T23:28:56.075Z,102164.16
2018-10-19T23:31:25.116Z,102151.70
2018-10-19T23:33:53.722Z,102154.29
2018-10-19T23:36:22.393Z,102151.23
2018-10-19T23:38:51.068Z,102156.26
2018-10-19T23:41:19.765Z,102151.53
2018-10-19T23:43:48.412Z,102154.45
2018-10-19T23:46:16.963Z,102158.55
2018-10-19T23:48:45.647Z,102163.52
2018-10-19T23:51:14.392Z,102166.02
2018-10-19T23:53:43.053Z,102152.47
2018-10-19T23:56:11.680Z,102169.61
2018-10-19T23:58:40.345Z,102172.45
